createdAt,value
2023-03-11T00:06:25.920Z,2.35
2023-03-11T00:07:51.400Z,2.42
2023-03-11T00:13:37.094Z,2.35
2023-03-11T00:20:12.740Z,2.29
2023-03-11T00:21:48.096Z,2.32
2023-03-11T00:23:22.812Z,2.38
2023-03-11T00:27:25.651Z,2.35
2023-03-11T00:30:15.198Z,2.32
2023-03-11T00:32:05.141Z,2.26
2023-03-11T00:33:35.840Z,2.24
2023-03-11T00:36:04.184Z,2.32
2023-03-11T00:42:00.258Z,2.36
2023-03-11T00:44:15.826Z,2.33
2023-03-11T00:48:16.988Z,2.20
2023-03-11T00:49:47.525Z,2.24
2023-03-11T00:53:00.397Z,2.20
2023-03-11T00:55:40.196Z,2.25
2023-03-11T00:58:11.203Z,2.17
2023-03-11T00:59:41.189Z,2.14
2023-03-11T01:01:47.213Z,2.10
2023-03-11T01:05:37.243Z,2.20
2023-03-11T01:08:16.563Z,2.15
2023-03-11T01:12:35.318Z,2.14
2023-03-11T01:15:18.735Z,2.10
2023-03-11T01:18:49.080Z,2.13
2023-03-11T01:21:18.332Z,1.97
2023-03-11T01:22:48.347Z,2.06
2023-03-11T01:27:08.703Z,2.10
2023-03-11T01:31:45.351Z,2.04
2023-03-11T01:36:08.977Z,2.18
2023-03-11T01:41:32.957Z,2.06
2023-03-11T01:43:32.114Z,2.00
2023-03-11T01:45:50.864Z,2.14
2023-03-11T01:47:29.038Z,2.17
2023-03-11T01:50:27.966Z,2.14
2023-03-11T01:54:10.047Z,2.10
2023-03-11T01:58:10.931Z,2.15
2023-03-11T02:00:03.028Z,2.24
2023-03-11T02:01:53.695Z,2.14
2023-03-11T02:07:07.468Z,2.15
2023-03-11T02:11:35.327Z,2.08
2023-03-11T02:15:40.053Z,2.06
2023-03-11T02:21:20.407Z,2.04
2023-03-11T02:26:52.488Z,2.08
2023-03-11T02:28:27.324Z,2.15
2023-03-11T02:30:55.801Z,2.07
2023-03-11T02:40:59.889Z,2.08
2023-03-11T02:44:25.312Z,2.06
2023-03-11T02:49:13.409Z,1.91
2023-03-11T02:51:18.768Z,1.88
2023-03-11T02:54:26.452Z,1.94
2023-03-11T03:02:48.488Z,1.84
2023-03-11T03:07:53.649Z,1.67
2023-03-11T03:09:27.325Z,1.80
2023-03-11T03:13:30.780Z,1.85
2023-03-11T03:20:13.093Z,1.89
2023-03-11T03:22:13.625Z,1.80
2023-03-11T03:25:53.800Z,1.91
2023-03-11T03:29:01.332Z,1.95
2023-03-11T03:30:29.263Z,1.91
2023-03-11T03:31:59.466Z,1.92
2023-03-11T03:35:19.203Z,1.97
2023-03-11T03:40:59.584Z,1.95
2023-03-11T03:45:04.533Z,2.02
2023-03-11T03:48:42.762Z,1.95
2023-03-11T03:53:27.675Z,1.84
2023-03-11T03:56:37.761Z,1.87
2023-03-11T03:58:06.578Z,1.84
2023-03-11T04:00:28.193Z,1.85
2023-03-11T04:05:37.017Z,1.92
2023-03-11T04:06:42.616Z,1.95
2023-03-11T04:07:56.086Z,1.89
2023-03-11T04:15:58.351Z,1.99
2023-03-11T04:17:29.210Z,2.04
2023-03-11T04:20:17.934Z,1.99
2023-03-11T04:21:48.797Z,1.97
2023-03-11T04:25:13.872Z,1.89
2023-03-11T04:27:17.247Z,1.89
2023-03-11T04:29:14.230Z,1.91
2023-03-11T04:30:16.024Z,1.92
2023-03-11T04:31:15.098Z,1.92
2023-03-11T04:35:19.248Z,1.73
2023-03-11T04:39:47.458Z,1.62
2023-03-11T04:41:39.937Z,1.59
2023-03-11T04:45:30.007Z,1.60
2023-03-11T04:48:40.503Z,1.48
2023-03-11T04:50:40.366Z,1.44
2023-03-11T04:57:05.812Z,1.45
2023-03-11T05:04:16.863Z,1.44
2023-03-11T05:07:31.409Z,1.45
2023-03-11T05:13:13.947Z,1.35
2023-03-11T05:16:23.514Z,1.32
2023-03-11T05:18:44.051Z,1.28
2023-03-11T05:22:24.515Z,1.19
2023-03-11T05:23:51.487Z,1.16
2023-03-11T05:31:16.319Z,1.04
2023-03-11T05:38:58.973Z,0.96
2023-03-11T05:42:36.645Z,0.99
2023-03-11T05:54:43.907Z,1.10
2023-03-11T05:57:18.489Z,1.13
2023-03-11T05:59:19.396Z,1.10
2023-03-11T06:01:06.515Z,1.12
2023-03-11T06:06:26.620Z,1.12
2023-03-11T06:08:44.800Z,1.13
2023-03-11T06:12:55.094Z,1.16
2023-03-11T06:15:16.261Z,1.16
2023-03-11T06:18:07.392Z,1.17
2023-03-11T06:22:40.174Z,1.16
2023-03-11T06:24:28.067Z,1.16
2023-03-11T06:27:23.037Z,1.14
2023-03-11T06:29:22.067Z,1.22
2023-03-11T06:31:44.900Z,1.24
2023-03-11T06:41:09.017Z,1.24
2023-03-11T06:47:48.862Z,1.26
2023-03-11T06:51:51.847Z,1.23
2023-03-11T06:53:23.574Z,1.28
2023-03-11T06:57:04.641Z,1.26
2023-03-11T07:00:35.406Z,1.23
2023-03-11T07:02:36.044Z,1.24
2023-03-11T07:03:55.221Z,1.28
2023-03-11T07:04:34.197Z,1.31
2023-03-11T07:06:26.878Z,1.35
2023-03-11T07:12:24.709Z,1.38
2023-03-11T07:15:07.649Z,1.45
2023-03-11T07:17:26.194Z,1.53
2023-03-11T07:24:34.610Z,1.56
2023-03-11T07:26:33.656Z,1.58
2023-03-11T07:29:53.990Z,1.76
2023-03-11T07:31:48.631Z,1.78
2023-03-11T07:35:05.144Z,1.81
2023-03-11T07:37:22.931Z,1.85
2023-03-11T07:39:54.998Z,1.87
2023-03-11T07:42:12.865Z,2.04
2023-03-11T07:52:02.000Z,2.14
2023-03-11T07:53:32.028Z,2.14
2023-03-11T07:55:21.770Z,2.14
2023-03-11T08:03:13.471Z,2.42
2023-03-11T08:07:13.152Z,2.67
2023-03-11T08:09:33.202Z,2.62
2023-03-11T08:16:12.629Z,2.85
2023-03-11T08:18:14.095Z,2.79
2023-03-11T08:23:10.508Z,3.14
2023-03-11T08:29:48.285Z,3.40
2023-03-11T08:39:32.280Z,5.66
2023-03-11T08:40:30.322Z,5.94
2023-03-11T08:41:30.301Z,6.20
2023-03-11T08:48:05.856Z,8.08
2023-03-11T08:49:38.743Z,8.27
2023-03-11T08:52:35.817Z,8.61
2023-03-11T08:54:05.669Z,8.19
2023-03-11T08:56:37.401Z,7.80
2023-03-11T08:58:35.606Z,7.70
2023-03-11T09:00:24.495Z,8.33
2023-03-11T09:04:18.946Z,8.69
2023-03-11T09:15:56.366Z,9.13
2023-03-11T09:18:56.520Z,10.35
2023-03-11T09:22:33.893Z,10.23
2023-03-11T09:25:34.652Z,10.01
2023-03-11T09:30:00.545Z,10.05
2023-03-11T09:31:31.404Z,10.12
2023-03-11T09:33:30.353Z,10.09
2023-03-11T09:36:17.163Z,9.69
2023-03-11T09:37:46.065Z,9.46
2023-03-11T09:42:05.325Z,8.33
2023-03-11T09:50:52.539Z,8.94
2023-03-11T09:53:32.906Z,9.10
2023-03-11T09:55:21.074Z,9.13
2023-03-11T09:58:58.187Z,9.03
2023-03-11T10:00:47.874Z,9.11
2023-03-11T10:03:07.751Z,9.22
2023-03-11T10:09:48.284Z,8.78
2023-03-11T10:11:46.137Z,9.16
2023-03-11T10:14:13.034Z,8.97
2023-03-11T10:18:15.088Z,9.89
2023-03-11T10:23:15.640Z,10.17
2023-03-11T10:28:02.285Z,11.33
2023-03-11T10:30:50.370Z,11.51
2023-03-11T10:37:49.333Z,12.67
2023-03-11T10:40:28.374Z,13.30
2023-03-11T10:43:00.111Z,13.19
2023-03-11T10:44:28.186Z,13.46
2023-03-11T10:47:35.991Z,12.91
2023-03-11T10:49:55.760Z,13.01
2023-03-11T10:52:36.764Z,13.97
2023-03-11T10:54:09.395Z,14.62
2023-03-11T10:56:07.533Z,14.51
2023-03-11T10:58:01.471Z,14.30
2023-03-11T11:03:08.265Z,16.20
2023-03-11T11:09:35.856Z,15.61
2023-03-11T11:11:04.215Z,15.42
2023-03-11T11:13:04.172Z,15.82
2023-03-11T11:17:35.937Z,17.36
2023-03-11T11:19:23.081Z,18.19
2023-03-11T11:20:53.011Z,18.34
2023-03-11T11:21:52.982Z,17.95
2023-03-11T11:22:54.841Z,18.26
2023-03-11T11:30:31.935Z,17.59
2023-03-11T11:34:04.417Z,18.65
2023-03-11T11:39:50.454Z,19.14
2023-03-11T11:41:18.554Z,19.94
2023-03-11T11:44:51.401Z,20.04
2023-03-11T11:46:41.245Z,19.74
2023-03-11T11:48:46.461Z,19.85
2023-03-11T11:50:51.121Z,19.86
2023-03-11T11:55:06.157Z,20.43
2023-03-11T11:56:35.045Z,20.18
2023-03-11T11:58:03.969Z,20.16
2023-03-11T12:00:54.355Z,19.40
2023-03-11T12:04:37.902Z,18.93
2023-03-11T12:06:09.537Z,18.70
2023-03-11T12:09:18.064Z,19.55
2023-03-11T12:12:58.231Z,19.47
2023-03-11T12:16:35.892Z,20.29
2023-03-11T12:20:24.054Z,21.43
2023-03-11T12:22:45.280Z,19.55
2023-03-11T12:24:15.154Z,19.70
2023-03-11T12:26:03.843Z,20.63
2023-03-11T12:27:32.732Z,20.93
2023-03-11T12:29:02.224Z,20.66
2023-03-11T12:32:50.937Z,21.43
2023-03-11T12:34:49.718Z,21.03
2023-03-11T12:37:19.480Z,22.45
2023-03-11T12:39:09.486Z,22.85
2023-03-11T12:40:38.125Z,22.59
2023-03-11T12:43:55.878Z,23.13
2023-03-11T12:46:43.063Z,22.28
2023-03-11T12:50:34.811Z,22.72
2023-03-11T12:52:01.855Z,23.00
2023-03-11T12:53:51.558Z,22.41
2023-03-11T13:18:21.986Z,18.73
2023-03-11T13:19:49.497Z,19.64
2023-03-11T13:22:10.470Z,19.31
2023-03-11T13:25:45.850Z,19.74
2023-03-11T13:29:30.464Z,20.56
2023-03-11T13:32:20.663Z,21.29
2023-03-11T13:37:04.282Z,21.57
2023-03-11T13:43:53.553Z,20.74
2023-03-11T13:55:15.486Z,18.71
2023-03-11T13:57:34.760Z,18.34
2023-03-11T13:59:34.089Z,17.79
2023-03-11T14:03:42.916Z,18.90
2023-03-11T14:11:52.503Z,18.26
2023-03-11T14:15:52.063Z,18.26
2023-03-11T14:19:41.231Z,17.89
2023-03-11T14:21:39.261Z,17.49
2023-03-11T14:24:20.364Z,16.72
2023-03-11T14:26:50.037Z,16.26
2023-03-11T14:30:19.110Z,15.68
2023-03-11T14:35:15.649Z,13.38
2023-03-11T14:38:46.684Z,12.03
2023-03-11T14:44:31.813Z,11.73
2023-03-11T14:46:00.796Z,11.80
2023-03-11T14:48:31.502Z,11.63
2023-03-11T14:51:18.205Z,11.51
2023-03-11T14:54:15.399Z,10.72
2023-03-11T14:56:04.183Z,10.48
2023-03-11T14:59:59.973Z,10.15
2023-03-11T15:05:03.594Z,9.74
2023-03-11T15:06:35.470Z,9.61
2023-03-11T15:07:34.653Z,9.54
2023-03-11T15:08:33.491Z,9.32
2023-03-11T15:10:03.378Z,9.43
2023-03-11T15:12:20.955Z,9.28
2023-03-11T15:13:20.925Z,9.22
2023-03-11T15:14:20.926Z,9.29
2023-03-11T15:16:48.450Z,8.99
2023-03-11T15:18:17.385Z,9.11
2023-03-11T15:22:03.215Z,8.87
2023-03-11T15:33:04.504Z,8.84
2023-03-11T15:37:32.945Z,8.74
2023-03-11T15:39:49.817Z,8.61
2023-03-11T15:42:17.875Z,8.52
2023-03-11T15:44:36.603Z,8.34
2023-03-11T15:49:36.019Z,8.12
2023-03-11T15:53:21.080Z,8.20
2023-03-11T15:55:19.094Z,8.10
2023-03-11T15:56:48.861Z,7.94
2023-03-11T15:58:48.307Z,8.08
2023-03-11T16:00:18.296Z,8.00
2023-03-11T16:03:17.051Z,7.97
2023-03-11T16:05:19.391Z,7.80
2023-03-11T16:06:53.928Z,7.75
2023-03-11T16:08:49.227Z,7.73
2023-03-11T16:12:58.466Z,7.83
2023-03-11T16:14:54.444Z,7.88
2023-03-11T16:16:26.665Z,7.94
2023-03-11T16:18:59.934Z,7.97
2023-03-11T16:20:58.820Z,7.88
2023-03-11T16:22:55.858Z,7.88
2023-03-11T16:24:24.902Z,7.98
2023-03-11T16:25:55.593Z,8.01
2023-03-11T16:29:06.151Z,8.05
2023-03-11T16:34:45.333Z,7.97
2023-03-11T16:36:16.757Z,7.97
2023-03-11T16:40:23.988Z,7.73
2023-03-11T16:43:14.594Z,7.57
2023-03-11T16:44:45.625Z,7.66
2023-03-11T16:46:12.640Z,7.61
2023-03-11T16:49:04.454Z,7.72
2023-03-11T16:50:38.203Z,7.69
2023-03-11T16:56:03.639Z,7.48
2023-03-11T16:59:23.162Z,7.40
2023-03-11T17:00:51.598Z,7.36
2023-03-11T17:02:23.349Z,7.40
2023-03-11T17:03:21.790Z,7.43
2023-03-11T17:04:21.046Z,7.42
2023-03-11T17:07:18.024Z,7.31
2023-03-11T17:09:38.103Z,7.14
2023-03-11T17:12:23.836Z,6.93
2023-03-11T17:17:07.261Z,6.81
2023-03-11T17:24:14.089Z,6.46
2023-03-11T17:27:13.972Z,6.44
2023-03-11T17:34:09.148Z,6.17
2023-03-11T17:35:58.894Z,6.09
2023-03-11T17:39:50.221Z,5.94
2023-03-11T17:44:33.238Z,5.83
2023-03-11T17:47:04.120Z,5.72
2023-03-11T17:50:11.668Z,5.62
2023-03-11T18:01:02.647Z,5.26
2023-03-11T18:02:31.597Z,5.18
2023-03-11T18:04:59.750Z,5.12
2023-03-11T18:08:18.370Z,5.07
2023-03-11T18:12:36.838Z,5.00
2023-03-11T18:16:04.732Z,4.93
2023-03-11T18:19:21.385Z,4.82
2023-03-11T18:21:49.379Z,4.77
2023-03-11T18:23:17.474Z,4.74
2023-03-11T18:27:04.982Z,4.67
2023-03-11T18:28:34.123Z,4.63
2023-03-11T18:31:04.482Z,4.56
2023-03-11T18:32:35.616Z,4.58
2023-03-11T18:33:35.427Z,4.53
2023-03-11T18:34:35.430Z,4.52
2023-03-11T18:39:07.639Z,4.42
2023-03-11T18:43:51.823Z,4.40
2023-03-11T18:47:12.826Z,4.34
2023-03-11T18:50:19.081Z,4.30
2023-03-11T18:55:07.264Z,4.17
2023-03-11T18:56:54.130Z,4.14
2023-03-11T18:58:24.020Z,4.12
2023-03-11T18:59:52.901Z,4.08
2023-03-11T19:01:22.848Z,4.05
2023-03-11T19:04:43.639Z,3.98
2023-03-11T19:07:27.173Z,3.88
2023-03-11T19:10:54.534Z,3.81
2023-03-11T19:15:28.788Z,3.76
2023-03-11T19:19:18.317Z,3.68
2023-03-11T19:21:19.217Z,3.65
2023-03-11T19:22:55.107Z,3.62
2023-03-11T19:25:15.015Z,3.60
2023-03-11T19:27:17.570Z,3.58
2023-03-11T19:33:28.275Z,3.53
2023-03-11T19:39:49.803Z,3.45
2023-03-11T19:43:20.651Z,3.40
2023-03-11T19:47:09.403Z,3.37
2023-03-11T19:51:19.994Z,3.36
2023-03-11T19:54:24.972Z,3.34
2023-03-11T19:57:46.624Z,3.40
2023-03-11T20:00:13.299Z,3.42
2023-03-11T20:03:42.112Z,3.42
2023-03-11T20:12:38.099Z,3.48
2023-03-11T20:14:54.168Z,3.51
2023-03-11T20:20:04.697Z,3.53
2023-03-11T20:21:04.666Z,3.53
2023-03-11T20:22:04.686Z,3.55
2023-03-11T20:23:04.685Z,3.58
2023-03-11T20:30:11.671Z,3.58
2023-03-11T20:31:43.596Z,3.59
2023-03-11T20:34:03.689Z,3.59
2023-03-11T20:40:44.046Z,3.50
2023-03-11T20:47:07.397Z,3.42
2023-03-11T20:57:34.586Z,3.25
2023-03-11T21:01:08.686Z,3.21
2023-03-11T21:03:01.730Z,3.14
2023-03-11T21:04:50.694Z,3.10
2023-03-11T21:07:10.451Z,3.08
2023-03-11T21:09:09.572Z,3.05
2023-03-11T21:13:40.013Z,3.01
2023-03-11T21:17:23.324Z,2.87
2023-03-11T21:20:21.200Z,2.95
2023-03-11T21:22:19.684Z,2.92
2023-03-11T21:25:08.896Z,2.92
2023-03-11T21:30:34.034Z,2.82
2023-03-11T21:34:54.076Z,2.71
2023-03-11T21:38:41.560Z,2.62
2023-03-11T21:44:05.810Z,2.49
2023-03-11T21:47:36.769Z,2.44
2023-03-11T21:58:08.446Z,2.26
2023-03-11T22:01:51.327Z,2.26
2023-03-11T22:05:03.603Z,2.25
2023-03-11T22:09:04.940Z,2.26
2023-03-11T22:11:56.379Z,2.25
2023-03-11T22:13:25.909Z,2.26
2023-03-11T22:14:57.964Z,2.26
2023-03-11T22:16:59.425Z,2.25
2023-03-11T22:20:19.697Z,2.24
2023-03-11T22:22:26.500Z,2.25
2023-03-11T22:25:04.051Z,2.25
2023-03-11T22:27:10.838Z,2.28
2023-03-11T22:29:54.562Z,2.29
2023-03-11T22:31:41.515Z,2.26
2023-03-11T22:34:18.780Z,2.26
2023-03-11T22:35:49.426Z,2.26
2023-03-11T22:38:29.465Z,2.26
2023-03-11T22:39:59.180Z,2.26
2023-03-11T22:42:21.186Z,2.24
2023-03-11T22:45:01.420Z,2.24
2023-03-11T22:47:37.382Z,2.24
2023-03-11T22:51:38.410Z,2.24
2023-03-11T22:53:07.007Z,2.24
2023-03-11T22:57:48.702Z,2.22
2023-03-11T22:58:38.249Z,2.24
2023-03-11T22:59:41.097Z,2.26
2023-03-11T23:00:39.505Z,2.25
2023-03-11T23:03:07.303Z,2.25
2023-03-11T23:04:39.098Z,2.26
2023-03-11T23:06:38.510Z,2.26
2023-03-11T23:09:45.078Z,2.26
2023-03-11T23:11:35.600Z,2.28
2023-03-11T23:13:25.683Z,2.29
2023-03-11T23:15:24.514Z,2.28
2023-03-11T23:17:26.699Z,2.29
2023-03-11T23:18:55.597Z,2.29
2023-03-11T23:22:56.182Z,2.32
2023-03-11T23:26:57.130Z,2.35
2023-03-11T23:30:51.345Z,2.42
2023-03-11T23:35:30.055Z,2.43
2023-03-11T23:38:28.477Z,2.44
2023-03-11T23:41:47.412Z,2.51
2023-03-11T23:49:16.583Z,2.64
2023-03-11T23:55:45.363Z,2.92
2023-03-11T23:57:13.981Z,2.95
